Time;durP1;ratioP1;P1;durP2;ratioP2;P2;SDS_P1;SDS_P2;PMS_P1;PMS_P2;Temp;Humidity;BMP_temperature;BMP_pressure;BME280_temperature;BME280_humidity;BME280_pressure;Samples;Min_cycle;Max_cycle;Signal;HPM_P1;HPM_P2
2023/09/14 00:02:21;;;;;;;29.13;22.80;;;21.50;77.70;;;;;;5077719;28;20099;-70
2023/09/14 00:04:47;;;;;;;33.70;27.20;;;21.50;77.70;;;;;;5078018;28;20312;-69
2023/09/14 00:07:13;;;;;;;28.35;22.77;;;21.50;77.70;;;;;;5077579;28;20031;-69
2023/09/14 00:09:39;;;;;;;26.35;21.15;;;21.50;77.70;;;;;;5076920;28;20378;-71
2023/09/14 00:12:05;;;;;;;26.98;22.13;;;21.50;77.70;;;;;;5077278;28;20450;-73
2023/09/14 00:14:32;;;;;;;27.52;23.08;;;21.50;77.70;;;;;;5077270;28;20085;-73
2023/09/14 00:16:58;;;;;;;26.17;22.55;;;21.50;77.70;;;;;;5077769;28;20024;-73
2023/09/14 00:19:25;;;;;;;26.05;20.08;;;21.50;77.60;;;;;;5077084;28;20025;-71
2023/09/14 00:21:54;;;;;;;26.25;20.90;;;21.50;77.70;;;;;;5077344;28;20032;-69
2023/09/14 00:24:24;;;;;;;24.35;19.20;;;21.50;77.70;;;;;;5077060;28;20101;-70
2023/09/14 00:26:51;;;;;;;23.00;19.33;;;21.40;77.70;;;;;;5076938;28;20028;-69
2023/09/14 00:29:17;;;;;;;28.55;19.95;;;21.40;77.80;;;;;;5076812;28;20358;-72
2023/09/14 00:31:44;;;;;;;28.02;22.77;;;21.50;77.60;;;;;;5059261;28;20031;-69
2023/09/14 00:34:09;;;;;;;27.25;20.52;;;21.50;77.60;;;;;;5077096;28;20435;-69
2023/09/14 00:36:37;;;;;;;24.30;19.58;;;21.40;77.70;;;;;;5076786;28;20044;-70
2023/09/14 00:39:03;;;;;;;23.73;19.10;;;21.40;77.90;;;;;;5076663;28;20021;-68
2023/09/14 00:41:29;;;;;;;23.90;18.33;;;21.40;77.90;;;;;;5076628;28;20034;-67
2023/09/14 00:43:55;;;;;;;22.35;17.73;;;21.40;77.90;;;;;;5076901;28;20029;-73
2023/09/14 00:46:21;;;;;;;20.08;16.52;;;21.40;78.10;;;;;;5076857;28;20052;-72
2023/09/14 00:48:49;;;;;;;20.55;16.70;;;21.30;78.20;;;;;;5076404;28;20408;-68
2023/09/14 00:51:15;;;;;;;20.67;16.50;;;21.40;78.20;;;;;;5076484;28;20055;-68
2023/09/14 00:53:41;;;;;;;21.38;17.17;;;21.40;78.20;;;;;;5076692;28;20052;-70
2023/09/14 00:56:07;;;;;;;19.08;15.77;;;21.40;78.30;;;;;;5076445;28;20048;-72
2023/09/14 00:58:33;;;;;;;19.05;15.23;;;21.40;78.30;;;;;;5076591;28;20042;-68
2023/09/14 01:01:00;;;;;;;25.08;15.48;;;21.40;78.30;;;;;;5058657;28;20063;-72
2023/09/14 01:03:26;;;;;;;22.30;18.30;;;21.40;78.40;;;;;;5076186;28;20335;-71
2023/09/14 01:05:58;;;;;;;23.80;17.52;;;21.40;78.40;;;;;;5075468;28;20047;-69
2023/09/14 01:08:24;;;;;;;23.23;18.33;;;21.40;78.40;;;;;;5076046;28;20063;-71
2023/09/14 01:10:55;;;;;;;24.05;19.00;;;21.40;78.40;;;;;;5075941;28;20115;-70
2023/09/14 01:13:56;;;;;;;24.90;19.60;;;21.40;78.40;;;;;;5076537;28;20107;-71
2023/09/14 01:16:32;;;;;;;24.10;18.95;;;21.40;78.50;;;;;;5076590;28;20070;-71
2023/09/14 01:19:08;;;;;;;22.98;19.25;;;21.40;78.40;;;;;;5076473;28;20074;-70
2023/09/14 01:21:56;;;;;;;23.38;18.98;;;21.40;78.40;;;;;;5076265;28;20035;-72
2023/09/14 01:24:50;;;;;;;24.00;19.33;;;21.40;78.40;;;;;;5076196;28;20080;-69
2023/09/14 01:27:17;;;;;;;25.08;20.52;;;21.50;78.50;;;;;;4975427;28;20043;-72
2023/09/14 01:29:43;;;;;;;27.50;20.25;;;21.50;78.30;;;;;;4975479;28;20027;-72
2023/09/14 01:32:09;;;;;;;27.65;22.48;;;21.50;78.40;;;;;;4975552;28;20134;-68
2023/09/14 01:34:35;;;;;;;26.73;21.42;;;21.50;78.30;;;;;;4975296;28;20102;-72
2023/09/14 01:37:05;;;;;;;27.98;22.38;;;21.50;78.30;;;;;;4959304;28;20031;-71
2023/09/14 01:39:33;;;;;;;27.02;21.00;;;21.40;78.30;;;;;;4975189;28;20444;-68
2023/09/14 01:42:01;;;;;;;26.42;21.60;;;21.40;78.40;;;;;;4959426;28;20090;-70
2023/09/14 01:44:28;;;;;;;26.08;21.75;;;21.40;78.60;;;;;;4975804;28;20442;-69
2023/09/14 01:46:55;;;;;;;25.77;20.60;;;21.40;78.60;;;;;;4958994;28;20030;-70
2023/09/14 01:49:21;;;;;;;28.48;21.80;;;21.40;78.60;;;;;;4975086;28;20069;-72
2023/09/14 01:51:47;;;;;;;26.88;22.23;;;21.30;78.70;;;;;;4975308;28;20038;-68
2023/09/14 01:54:13;;;;;;;28.25;21.02;;;21.30;78.80;;;;;;4975141;28;20098;-72
2023/09/14 01:56:40;;;;;;;26.17;22.35;;;21.30;78.70;;;;;;4975592;28;20127;-69
2023/09/14 01:59:05;;;;;;;28.58;24.23;;;21.20;78.90;;;;;;4975240;28;20055;-72
2023/09/14 02:01:31;;;;;;;29.15;23.60;;;21.20;78.80;;;;;;4974984;28;20466;-72
2023/09/14 02:03:57;;;;;;;32.83;23.52;;;21.20;78.70;;;;;;5018199;28;20048;-70
2023/09/14 02:06:23;;;;;;;28.90;22.92;;;21.20;78.80;;;;;;5075336;28;20366;-69
2023/09/14 02:08:49;;;;;;;30.95;23.92;;;21.10;78.90;;;;;;5075738;28;20042;-73
2023/09/14 02:11:15;;;;;;;27.27;21.92;;;21.10;79.00;;;;;;5075095;28;20041;-68
2023/09/14 02:13:41;;;;;;;38.40;22.30;;;21.00;79.00;;;;;;5075484;28;20032;-69
2023/09/14 02:16:09;;;;;;;30.40;23.13;;;21.10;79.00;;;;;;5075105;28;20024;-69
2023/09/14 02:18:35;;;;;;;30.02;23.70;;;21.00;78.90;;;;;;5075141;28;20025;-69
2023/09/14 02:21:01;;;;;;;35.42;27.42;;;21.00;79.00;;;;;;5075134;28;20036;-70
2023/09/14 02:23:27;;;;;;;29.23;24.25;;;20.90;79.10;;;;;;5075133;28;20021;-69
2023/09/14 02:25:53;;;;;;;26.85;22.45;;;20.90;79.20;;;;;;5057894;28;20028;-69
2023/09/14 02:28:20;;;;;;;30.30;24.58;;;20.90;79.30;;;;;;5075132;28;20443;-69
2023/09/14 02:30:47;;;;;;;33.28;24.55;;;20.90;79.40;;;;;;5074958;28;20473;-69
2023/09/14 02:33:13;;;;;;;41.17;32.88;;;20.90;79.40;;;;;;5075341;28;20044;-67
2023/09/14 02:35:40;;;;;;;28.13;22.42;;;20.80;79.70;;;;;;5075239;28;20070;-70
2023/09/14 02:38:07;;;;;;;30.13;24.77;;;20.80;79.60;;;;;;5075106;28;20029;-73
2023/09/14 02:40:33;;;;;;;29.27;23.83;;;20.80;79.70;;;;;;5075508;28;20056;-68
2023/09/14 02:43:05;;;;;;;32.45;27.77;;;20.80;79.50;;;;;;5074904;28;20040;-69
2023/09/14 02:45:34;;;;;;;32.75;26.75;;;20.80;79.50;;;;;;5074841;28;20111;-68
2023/09/14 02:48:00;;;;;;;34.08;25.65;;;20.70;79.50;;;;;;5075109;28;20029;-69
2023/09/14 02:50:26;;;;;;;29.52;23.25;;;20.70;79.40;;;;;;5075354;28;20477;-71
2023/09/14 02:52:52;;;;;;;26.52;21.95;;;20.70;79.60;;;;;;5074807;28;20021;-70
2023/09/14 02:55:18;;;;;;;29.85;23.45;;;20.60;79.60;;;;;;5075041;28;20017;-70
2023/09/14 02:57:44;;;;;;;27.77;22.70;;;20.60;79.70;;;;;;5075218;28;20347;-69
2023/09/14 03:00:20;;;;;;;31.67;26.27;;;20.70;79.70;;;;;;5074767;28;20335;-71
2023/09/14 03:02:46;;;;;;;31.45;24.02;;;20.60;79.70;;;;;;5075312;28;20066;-68
2023/09/14 03:05:12;;;;;;;28.80;23.58;;;20.60;79.80;;;;;;5074995;28;20346;-68
2023/09/14 03:07:38;;;;;;;28.40;22.00;;;20.60;79.80;;;;;;5074525;28;20036;-70
2023/09/14 03:10:06;;;;;;;26.88;22.05;;;20.50;79.70;;;;;;5074526;28;20052;-70
2023/09/14 03:12:32;;;;;;;32.50;27.77;;;20.50;79.80;;;;;;5074431;28;20028;-69
2023/09/14 03:14:58;;;;;;;35.10;27.10;;;20.50;79.80;;;;;;5075087;28;20427;-72
2023/09/14 03:17:23;;;;;;;29.50;24.35;;;20.50;79.80;;;;;;5074581;28;20029;-72
2023/09/14 03:20:06;;;;;;;35.70;28.08;;;20.50;79.90;;;;;;5075057;28;20040;-72
2023/09/14 03:24:57;;;;;;;30.00;24.00;;;20.40;79.90;;;;;;5075351;28;20478;-71
2023/09/14 03:27:23;;;;;;;29.40;23.70;;;20.40;79.90;;;;;;5074486;28;20020;-72
2023/09/14 03:29:58;;;;;;;31.67;23.38;;;20.40;79.90;;;;;;5077751;28;20053;-72
2023/09/14 03:32:24;;;;;;;34.25;25.95;;;20.40;79.90;;;;;;5078393;28;20047;-70
2023/09/14 03:34:53;;;;;;;29.67;22.90;;;20.40;80.00;;;;;;5060896;28;20501;-68
2023/09/14 03:37:21;;;;;;;31.05;24.05;;;20.40;80.00;;;;;;5077982;28;20030;-72
2023/09/14 03:39:49;;;;;;;33.70;27.30;;;20.40;80.00;;;;;;5077840;28;20354;-69
2023/09/14 03:42:18;;;;;;;29.75;23.50;;;20.40;80.10;;;;;;5077947;28;20100;-71
2023/09/14 03:44:44;;;;;;;30.48;22.08;;;20.40;80.10;;;;;;5077693;28;20025;-69
2023/09/14 03:47:23;;;;;;;28.95;23.23;;;20.40;80.00;;;;;;5078338;28;20103;-72
2023/09/14 03:49:48;;;;;;;29.02;22.98;;;20.40;80.00;;;;;;5078265;28;20119;-69
2023/09/14 03:52:17;;;;;;;28.17;23.98;;;20.50;80.00;;;;;;5077983;28;20048;-68
2023/09/14 03:54:43;;;;;;;35.67;26.50;;;20.50;80.00;;;;;;5077618;28;20024;-72
2023/09/14 03:57:14;;;;;;;34.53;28.70;;;20.50;80.10;;;;;;5077599;28;20024;-69
2023/09/14 03:59:44;;;;;;;30.85;26.33;;;20.50;80.10;;;;;;5077813;28;20028;-69
2023/09/14 04:02:11;;;;;;;31.30;23.50;;;20.50;80.20;;;;;;5077869;28;20029;-72
2023/09/14 04:04:42;;;;;;;37.55;29.45;;;20.50;80.30;;;;;;5077804;28;20055;-68
2023/09/14 04:07:09;;;;;;;36.42;29.55;;;20.60;80.10;;;;;;5077722;28;20095;-72
2023/09/14 04:09:35;;;;;;;36.50;29.02;;;20.60;80.10;;;;;;5077064;28;20055;-69
2023/09/14 04:12:05;;;;;;;35.33;28.23;;;20.50;80.10;;;;;;5077912;28;20021;-69
2023/09/14 04:14:31;;;;;;;38.65;29.67;;;20.50;80.30;;;;;;5077323;28;20017;-71
2023/09/14 04:17:01;;;;;;;42.75;32.25;;;20.50;80.20;;;;;;5077538;28;20020;-69
2023/09/14 04:19:29;;;;;;;42.83;34.47;;;20.50;80.30;;;;;;5077080;28;20358;-67
2023/09/14 04:21:55;;;;;;;45.22;33.63;;;20.50;80.40;;;;;;5077392;28;20127;-69
2023/09/14 04:24:22;;;;;;;44.33;34.83;;;20.50;80.50;;;;;;5077316;28;20111;-72
2023/09/14 04:26:49;;;;;;;41.10;33.15;;;20.50;80.60;;;;;;5077078;28;20069;-70
2023/09/14 04:29:15;;;;;;;46.70;35.25;;;20.50;80.70;;;;;;5076815;28;20035;-67
2023/09/14 04:31:41;;;;;;;39.13;31.15;;;20.50;81.40;;;;;;5076951;28;20366;-71
2023/09/14 04:34:07;;;;;;;36.95;29.08;;;20.50;81.00;;;;;;5059258;28;20020;-71
2023/09/14 04:36:34;;;;;;;39.25;30.00;;;20.40;81.00;;;;;;5076845;28;20009;-68
2023/09/14 04:39:00;;;;;;;36.78;29.10;;;20.40;81.10;;;;;;5076496;28;20024;-70
2023/09/14 04:41:26;;;;;;;35.80;28.58;;;20.40;81.00;;;;;;5076763;28;20074;-71
2023/09/14 04:43:52;;;;;;;36.10;27.92;;;20.40;81.10;;;;;;5076698;28;20032;-69
2023/09/14 04:46:18;;;;;;;39.60;30.30;;;20.40;81.00;;;;;;5076656;28;20023;-71
2023/09/14 04:48:44;;;;;;;37.30;29.73;;;20.40;80.90;;;;;;5076737;28;20136;-67
2023/09/14 04:51:10;;;;;;;35.60;27.88;;;20.40;81.00;;;;;;5076553;28;20092;-67
2023/09/14 04:53:36;;;;;;;31.90;25.20;;;20.40;81.00;;;;;;5076709;28;20104;-68
2023/09/14 04:56:02;;;;;;;33.40;27.20;;;20.40;81.00;;;;;;5076428;28;20074;-72
2023/09/14 04:58:27;;;;;;;32.58;26.33;;;20.40;81.20;;;;;;5076237;28;20029;-72
2023/09/14 05:00:53;;;;;;;34.95;27.13;;;20.50;81.20;;;;;;5076573;28;20111;-68
2023/09/14 05:03:19;;;;;;;31.27;26.00;;;20.50;81.20;;;;;;5076763;28;20025;-68
2023/09/14 05:05:54;;;;;;;34.50;26.95;;;20.50;81.20;;;;;;5076466;28;20021;-70
2023/09/14 05:08:20;;;;;;;39.03;28.92;;;20.50;81.10;;;;;;5076253;28;20028;-70
2023/09/14 05:10:51;;;;;;;41.20;31.48;;;20.60;81.20;;;;;;5075904;28;20051;-68
2023/09/14 05:15:54;;;;;;;40.97;31.65;;;20.60;81.10;;;;;;5076723;28;20090;-70
2023/09/14 05:18:20;;;;;;;37.72;27.95;;;20.60;81.00;;;;;;5076117;28;20020;-68
2023/09/14 05:20:49;;;;;;;36.28;27.85;;;20.60;81.00;;;;;;5076102;28;20438;-67
2023/09/14 05:23:22;;;;;;;36.17;26.60;;;20.60;81.00;;;;;;5075844;28;20020;-70
2023/09/14 05:25:48;;;;;;;39.33;30.50;;;20.60;81.00;;;;;;5076302;28;20024;-71
2023/09/14 05:28:14;;;;;;;36.15;30.00;;;20.60;80.90;;;;;;5075644;28;20335;-72
2023/09/14 05:30:40;;;;;;;40.05;31.83;;;20.60;80.90;;;;;;5058203;28;20525;-71
2023/09/14 05:33:14;;;;;;;42.25;34.05;;;20.60;80.90;;;;;;5075969;28;20027;-69
2023/09/14 05:35:40;;;;;;;42.72;33.08;;;20.50;80.90;;;;;;5075502;28;20024;-69
2023/09/14 05:38:05;;;;;;;41.47;31.88;;;20.60;80.90;;;;;;5075776;28;20021;-72
2023/09/14 05:40:32;;;;;;;44.17;34.55;;;20.50;81.00;;;;;;5075855;28;20036;-72
2023/09/14 05:42:59;;;;;;;43.45;34.25;;;20.50;81.00;;;;;;5075811;28;20070;-68
2023/09/14 05:45:25;;;;;;;42.25;32.85;;;20.50;81.10;;;;;;5075747;28;20037;-70
2023/09/14 05:47:50;;;;;;;44.58;34.60;;;20.50;81.20;;;;;;5075587;28;20107;-69
2023/09/14 05:50:16;;;;;;;42.10;30.80;;;20.50;81.20;;;;;;5075448;28;20027;-68
2023/09/14 05:52:42;;;;;;;42.92;30.88;;;20.60;81.10;;;;;;5075075;28;20025;-69
2023/09/14 05:55:09;;;;;;;39.88;30.05;;;20.70;81.20;;;;;;5075649;28;20028;-70
2023/09/14 05:57:37;;;;;;;35.67;28.15;;;20.80;81.00;;;;;;5075277;28;20037;-68
2023/09/14 06:00:12;;;;;;;34.53;27.38;;;20.90;81.00;;;;;;5075521;28;20449;-71
2023/09/14 06:02:44;;;;;;;33.80;26.23;;;21.10;80.90;;;;;;5075297;28;20466;-71
2023/09/14 06:05:09;;;;;;;34.58;27.50;;;21.20;80.60;;;;;;5075798;28;20021;-71
2023/09/14 06:07:36;;;;;;;31.15;24.05;;;21.20;80.50;;;;;;5075362;28;20043;-68
2023/09/14 06:10:03;;;;;;;29.73;22.92;;;21.30;80.50;;;;;;5075713;28;20135;-68
2023/09/14 06:12:29;;;;;;;38.35;29.58;;;21.30;80.40;;;;;;5075168;28;20028;-70
2023/09/14 06:14:58;;;;;;;32.85;25.30;;;21.40;80.30;;;;;;5075125;28;20043;-68
2023/09/14 06:17:26;;;;;;;34.22;26.92;;;21.40;80.10;;;;;;5057605;28;20021;-70
2023/09/14 06:19:52;;;;;;;28.88;23.75;;;21.40;80.20;;;;;;5075155;28;20036;-71
2023/09/14 06:22:18;;;;;;;30.70;25.35;;;21.50;80.00;;;;;;5075151;28;20024;-69
2023/09/14 06:24:44;;;;;;;29.63;21.70;;;21.50;79.90;;;;;;5075307;28;20092;-70
2023/09/14 06:27:10;;;;;;;28.40;22.58;;;21.60;79.70;;;;;;5075055;28;20458;-71
2023/09/14 06:29:35;;;;;;;26.30;21.95;;;21.70;79.80;;;;;;5074945;28;20032;-71
2023/09/14 06:32:03;;;;;;;30.38;23.55;;;21.90;79.60;;;;;;5074974;28;20059;-69
2023/09/14 06:34:30;;;;;;;35.03;27.15;;;22.00;79.40;;;;;;5074944;28;20115;-69
2023/09/14 06:36:56;;;;;;;28.63;22.70;;;22.00;79.10;;;;;;5075142;28;20044;-67
2023/09/14 06:39:22;;;;;;;32.17;24.55;;;22.10;79.00;;;;;;5075397;28;20438;-68
2023/09/14 06:41:48;;;;;;;27.95;23.00;;;22.20;78.60;;;;;;5075412;28;20051;-71
2023/09/14 06:44:18;;;;;;;34.25;26.50;;;22.30;78.50;;;;;;5074846;28;20076;-69
2023/09/14 06:46:46;;;;;;;31.65;25.55;;;22.30;78.30;;;;;;5074784;28;20040;-70
2023/09/14 06:49:12;;;;;;;37.15;27.17;;;22.40;78.20;;;;;;5074329;28;20024;-68
2023/09/14 06:51:38;;;;;;;29.50;24.80;;;22.40;78.10;;;;;;5074841;28;20120;-68
2023/09/14 06:54:04;;;;;;;33.67;26.48;;;22.40;78.00;;;;;;5075036;28;20021;-71
2023/09/14 06:56:31;;;;;;;33.83;26.50;;;22.40;77.80;;;;;;5074770;28;20059;-69
2023/09/14 06:58:57;;;;;;;33.15;26.92;;;22.50;77.70;;;;;;5074700;28;20028;-69
2023/09/14 07:01:23;;;;;;;30.42;25.27;;;22.40;77.70;;;;;;5057138;28;20040;-71
2023/09/14 07:03:52;;;;;;;34.58;26.02;;;22.40;77.80;;;;;;5076890;28;20039;-70
2023/09/14 07:06:18;;;;;;;29.08;23.58;;;22.40;77.70;;;;;;5078545;28;20024;-69
2023/09/14 07:08:44;;;;;;;30.48;24.20;;;22.40;77.80;;;;;;5061201;28;20024;-68
2023/09/14 07:11:10;;;;;;;30.33;23.65;;;22.40;77.80;;;;;;5078312;28;20098;-69
2023/09/14 07:13:36;;;;;;;28.17;22.58;;;22.40;77.70;;;;;;5078397;28;20020;-68
2023/09/14 07:16:04;;;;;;;32.00;24.85;;;22.40;77.50;;;;;;5078304;28;20174;-69
2023/09/14 07:18:32;;;;;;;27.67;21.80;;;22.50;77.50;;;;;;5078234;28;20111;-68
2023/09/14 07:21:01;;;;;;;26.70;22.85;;;22.50;77.50;;;;;;5078266;28;20466;-69
2023/09/14 07:23:29;;;;;;;27.65;21.33;;;22.60;77.50;;;;;;5078269;28;20025;-68
2023/09/14 07:25:56;;;;;;;25.27;21.23;;;22.70;77.50;;;;;;5078159;28;20032;-71
2023/09/14 07:28:21;;;;;;;28.30;22.50;;;22.80;77.40;;;;;;5078242;28;20361;-68
2023/09/14 07:30:53;;;;;;;26.40;21.60;;;22.90;76.90;;;;;;5078101;28;20490;-68
2023/09/14 07:33:21;;;;;;;26.38;21.20;;;22.90;76.80;;;;;;5078039;28;20104;-71
2023/09/14 07:35:47;;;;;;;27.38;23.10;;;23.10;76.70;;;;;;5078288;28;20017;-69
2023/09/14 07:38:13;;;;;;;27.98;23.05;;;23.20;76.50;;;;;;5077933;28;20362;-69
2023/09/14 07:40:41;;;;;;;24.67;20.38;;;23.40;76.30;;;;;;5072796;28;20028;-68
2023/09/14 07:43:07;;;;;;;22.20;17.95;;;23.60;76.10;;;;;;5060686;28;20073;-69
2023/09/14 07:45:34;;;;;;;25.02;21.10;;;23.70;75.90;;;;;;5078100;28;20052;-68
2023/09/14 07:48:01;;;;;;;27.08;23.02;;;23.90;75.40;;;;;;5077770;28;20021;-69
2023/09/14 07:50:27;;;;;;;26.25;20.77;;;23.90;74.40;;;;;;5077689;28;20033;-69
2023/09/14 07:52:53;;;;;;;25.98;20.25;;;23.90;73.80;;;;;;5077695;28;20104;-70
2023/09/14 07:55:18;;;;;;;23.77;20.50;;;23.90;73.90;;;;;;5077101;28;20025;-69
2023/09/14 07:57:44;;;;;;;28.30;22.52;;;23.90;73.40;;;;;;5075501;28;20131;-70
2023/09/14 08:00:10;;;;;;;25.27;20.15;;;23.90;73.60;;;;;;5075539;28;20146;-70
2023/09/14 08:02:36;;;;;;;22.23;18.42;;;23.90;73.50;;;;;;5075564;28;20366;-68
2023/09/14 08:05:02;;;;;;;22.85;18.58;;;23.90;73.50;;;;;;5075490;28;20029;-69
2023/09/14 08:07:28;;;;;;;19.40;16.75;;;23.90;73.30;;;;;;5057802;28;20027;-70
2023/09/14 08:09:54;;;;;;;18.55;15.50;;;23.90;73.30;;;;;;5075725;28;20044;-69
2023/09/14 08:12:23;;;;;;;17.58;15.38;;;24.00;72.70;;;;;;5077081;28;20047;-69
2023/09/14 08:14:49;;;;;;;17.65;15.75;;;24.00;72.50;;;;;;5077017;28;20031;-70
2023/09/14 08:17:15;;;;;;;20.88;15.75;;;24.00;71.90;;;;;;5077770;28;20096;-69
2023/09/14 08:20:05;;;;;;;17.40;13.60;;;24.00;71.60;;;;;;5077133;28;20103;-68
2023/09/14 08:22:31;;;;;;;22.20;18.02;;;23.90;71.70;;;;;;5077440;28;20021;-69
2023/09/14 08:25:00;;;;;;;18.92;16.08;;;23.90;71.50;;;;;;5077627;28;20107;-70
2023/09/14 08:27:28;;;;;;;18.45;15.52;;;23.90;71.70;;;;;;5076871;28;20017;-69
2023/09/14 08:29:57;;;;;;;21.13;17.55;;;23.90;72.00;;;;;;5077231;28;20355;-70
2023/09/14 08:32:24;;;;;;;18.27;16.25;;;23.90;72.00;;;;;;5077266;28;20021;-69
2023/09/14 08:34:50;;;;;;;23.50;18.38;;;24.00;72.00;;;;;;5076709;28;20096;-69
2023/09/14 08:37:16;;;;;;;20.25;17.77;;;23.90;71.70;;;;;;5076773;28;20024;-70
2023/09/14 08:39:42;;;;;;;19.33;16.70;;;23.90;71.90;;;;;;5076783;28;20051;-72
2023/09/14 08:42:09;;;;;;;19.73;16.42;;;23.90;72.20;;;;;;5076793;28;20382;-72
2023/09/14 08:44:35;;;;;;;20.73;17.27;;;23.90;72.20;;;;;;5076718;28;20397;-68
2023/09/14 08:47:02;;;;;;;16.73;14.45;;;24.00;72.30;;;;;;5077234;28;20017;-69
2023/09/14 08:49:30;;;;;;;21.33;18.15;;;24.00;72.30;;;;;;5076506;28;20050;-70
2023/09/14 08:51:59;;;;;;;20.52;18.33;;;24.20;72.00;;;;;;5059698;28;20013;-68
2023/09/14 08:54:26;;;;;;;20.00;17.83;;;24.20;71.60;;;;;;5076443;28;20034;-72
2023/09/14 08:56:53;;;;;;;23.20;18.20;;;24.20;71.70;;;;;;5076497;28;20032;-69
2023/09/14 08:59:20;;;;;;;19.90;17.40;;;24.20;71.80;;;;;;5076389;28;20112;-72
2023/09/14 09:01:50;;;;;;;19.95;16.85;;;24.20;71.90;;;;;;5076684;28;20024;-68
2023/09/14 09:04:16;;;;;;;23.05;17.88;;;24.30;71.80;;;;;;5076345;28;20039;-69
2023/09/14 09:06:42;;;;;;;22.20;18.50;;;24.40;71.80;;;;;;5076585;28;20033;-72
2023/09/14 09:09:14;;;;;;;21.20;17.75;;;24.40;71.50;;;;;;5076046;28;20405;-71
2023/09/14 09:11:40;;;;;;;22.02;17.33;;;24.40;71.60;;;;;;5035699;28;20092;-70
2023/09/14 09:14:06;;;;;;;23.20;18.92;;;24.50;71.70;;;;;;5036187;28;20021;-72
2023/09/14 09:16:33;;;;;;;19.77;16.58;;;24.50;71.50;;;;;;5035317;28;20124;-68
2023/09/14 09:19:04;;;;;;;20.83;17.90;;;24.60;71.30;;;;;;5035935;28;20029;-69
2023/09/14 09:21:35;;;;;;;21.30;18.40;;;24.70;71.20;;;;;;5035223;28;20038;-69
2023/09/14 09:24:04;;;;;;;19.42;16.25;;;24.70;70.80;;;;;;5036058;28;20026;-68
2023/09/14 09:26:37;;;;;;;24.33;19.75;;;24.70;70.80;;;;;;5034853;28;20025;-71
2023/09/14 09:29:22;;;;;;;21.55;17.60;;;24.70;70.30;;;;;;5036142;28;20038;-68
2023/09/14 09:31:50;;;;;;;21.80;17.10;;;24.60;70.00;;;;;;5036229;28;20054;-70
2023/09/14 09:34:22;;;;;;;19.75;17.65;;;24.60;70.30;;;;;;5034935;28;20459;-70
2023/09/14 09:36:54;;;;;;;21.98;18.50;;;24.60;69.80;;;;;;5036439;28;20029;-70
2023/09/14 09:39:20;;;;;;;21.17;18.60;;;24.50;70.50;;;;;;5036069;28;20065;-69
2023/09/14 09:41:46;;;;;;;20.42;17.23;;;24.60;70.60;;;;;;5036335;28;20060;-69
2023/09/14 09:44:28;;;;;;;18.77;16.02;;;24.60;70.70;;;;;;5035753;28;20363;-70
2023/09/14 09:46:58;;;;;;;19.33;17.10;;;24.70;70.50;;;;;;5034675;28;20025;-69
2023/09/14 09:49:25;;;;;;;21.00;18.80;;;24.70;70.10;;;;;;5034516;28;20029;-71
2023/09/14 09:51:52;;;;;;;20.20;17.50;;;24.70;69.70;;;;;;5035506;28;20045;-70
2023/09/14 09:54:30;;;;;;;22.50;18.63;;;24.70;70.00;;;;;;5035539;28;20025;-69
2023/09/14 09:56:57;;;;;;;20.38;17.13;;;24.60;69.80;;;;;;5035710;28;20454;-69
2023/09/14 09:59:25;;;;;;;20.27;17.95;;;24.70;69.70;;;;;;5034388;28;20359;-70
2023/09/14 10:01:53;;;;;;;18.42;15.98;;;24.70;69.30;;;;;;5035381;28;20124;-72
2023/09/14 10:04:19;;;;;;;17.90;14.98;;;24.70;69.80;;;;;;5035318;28;20498;-68
2023/09/14 10:06:52;;;;;;;19.08;15.02;;;24.80;68.60;;;;;;5035881;28;20042;-72
2023/09/14 10:09:18;;;;;;;18.70;14.52;;;24.80;68.50;;;;;;5035934;28;20067;-70
2023/09/14 10:11:46;;;;;;;17.17;15.10;;;24.80;68.70;;;;;;5075424;28;20067;-69
2023/09/14 10:14:15;;;;;;;17.67;15.52;;;24.90;67.60;;;;;;5057680;28;20013;-69
2023/09/14 10:16:43;;;;;;;16.40;13.60;;;24.90;67.90;;;;;;5075128;28;20024;-69
2023/09/14 10:19:09;;;;;;;16.90;14.27;;;25.00;68.10;;;;;;5075084;28;20113;-70
2023/09/14 10:21:37;;;;;;;17.05;14.25;;;25.10;67.70;;;;;;5075349;28;20126;-72
2023/09/14 10:24:14;;;;;;;16.25;13.10;;;25.40;68.30;;;;;;5075027;28;20028;-70
2023/09/14 10:26:44;;;;;;;15.32;12.65;;;25.80;67.60;;;;;;5075682;28;20032;-68
2023/09/14 10:29:10;;;;;;;12.50;11.07;;;25.90;65.40;;;;;;5074929;28;20025;-70
2023/09/14 10:31:38;;;;;;;14.85;12.32;;;26.00;65.70;;;;;;5075328;28;20017;-73
2023/09/14 10:34:04;;;;;;;14.52;12.23;;;26.30;65.50;;;;;;5074999;28;20016;-70
2023/09/14 10:36:32;;;;;;;13.25;10.75;;;26.40;64.20;;;;;;5075212;28;20025;-71
2023/09/14 10:38:59;;;;;;;12.55;10.80;;;26.60;63.80;;;;;;5078920;28;20382;-69
2023/09/14 10:41:25;;;;;;;15.18;11.75;;;26.70;63.20;;;;;;5079111;28;20028;-72
2023/09/14 10:43:53;;;;;;;15.70;12.35;;;26.90;62.80;;;;;;5079585;28;20515;-69
2023/09/14 10:46:26;;;;;;;17.17;12.32;;;26.90;62.40;;;;;;5078996;28;20040;-68
2023/09/14 10:48:56;;;;;;;18.30;12.68;;;27.10;62.40;;;;;;5078922;28;20025;-69
2023/09/14 10:51:23;;;;;;;15.32;12.55;;;27.20;62.10;;;;;;5062008;28;20058;-71
2023/09/14 10:53:50;;;;;;;13.25;11.30;;;27.20;62.30;;;;;;5078907;28;20025;-72
2023/09/14 10:56:30;;;;;;;12.52;10.95;;;27.30;62.00;;;;;;5078793;28;20082;-69
2023/09/14 10:58:57;;;;;;;12.23;10.80;;;27.30;61.40;;;;;;5078866;28;20031;-71
2023/09/14 11:01:27;;;;;;;13.40;11.02;;;27.20;62.00;;;;;;5061548;28;20032;-70
2023/09/14 11:04:13;;;;;;;13.25;10.27;;;27.30;62.00;;;;;;5079120;28;20059;-70
2023/09/14 11:06:52;;;;;;;13.05;10.50;;;27.10;60.10;;;;;;5061340;28;20457;-69
2023/09/14 11:09:23;;;;;;;12.35;10.75;;;27.00;61.30;;;;;;5078547;28;20028;-69
2023/09/14 11:11:52;;;;;;;13.27;10.63;;;26.90;61.80;;;;;;5078365;28;20048;-70
2023/09/14 11:14:21;;;;;;;14.55;11.68;;;26.90;61.50;;;;;;5078451;28;20017;-70
2023/09/14 11:16:50;;;;;;;12.18;10.77;;;26.80;61.30;;;;;;5078591;28;20396;-70
2023/09/14 11:19:32;;;;;;;14.30;12.18;;;26.80;61.60;;;;;;5060606;28;20020;-73
2023/09/14 11:22:13;;;;;;;13.18;10.68;;;26.70;61.60;;;;;;5078330;28;20028;-72
2023/09/14 11:24:39;;;;;;;12.98;11.00;;;26.70;61.60;;;;;;5060688;28;20112;-69
2023/09/14 11:27:05;;;;;;;13.05;11.57;;;26.60;61.60;;;;;;5078463;28;20021;-70
2023/09/14 11:29:32;;;;;;;15.95;12.40;;;26.70;61.50;;;;;;5078292;28;20102;-69
2023/09/14 11:32:02;;;;;;;12.82;11.52;;;26.80;61.00;;;;;;5078360;28;20111;-72
2023/09/14 11:34:32;;;;;;;14.98;12.50;;;26.90;60.50;;;;;;5060642;28;20052;-69
2023/09/14 11:37:00;;;;;;;14.07;11.23;;;26.90;59.90;;;;;;5044192;28;20542;-69
2023/09/14 11:39:28;;;;;;;13.02;11.60;;;26.90;60.30;;;;;;5060771;28;20401;-69
2023/09/14 11:41:59;;;;;;;13.68;11.85;;;27.00;60.60;;;;;;5077902;28;20025;-69
2023/09/14 11:44:31;;;;;;;14.48;12.68;;;27.20;61.00;;;;;;5060175;28;20020;-69
2023/09/14 11:47:02;;;;;;;14.10;12.57;;;27.30;60.20;;;;;;5060839;28;20029;-70
2023/09/14 11:49:30;;;;;;;16.88;13.50;;;27.30;59.20;;;;;;5077263;28;20028;-69
2023/09/14 11:51:57;;;;;;;14.02;11.25;;;27.30;60.10;;;;;;5060443;28;20024;-70
2023/09/14 11:54:30;;;;;;;16.45;13.75;;;27.40;60.00;;;;;;5043331;28;20021;-71
2023/09/14 11:57:03;;;;;;;16.98;14.38;;;27.50;59.80;;;;;;5059924;28;20473;-70
2023/09/14 11:59:31;;;;;;;13.93;12.43;;;27.60;59.20;;;;;;5076710;28;20029;-71
2023/09/14 12:01:58;;;;;;;14.30;12.60;;;27.60;59.80;;;;;;5071393;28;20025;-70
2023/09/14 12:04:31;;;;;;;14.13;12.30;;;27.70;59.30;;;;;;5057579;28;20028;-71
2023/09/14 12:07:02;;;;;;;16.15;14.43;;;27.70;59.10;;;;;;5072477;28;20377;-71
2023/09/14 12:09:35;;;;;;;17.23;14.40;;;27.80;57.60;;;;;;5077387;28;20035;-69
2023/09/14 12:12:01;;;;;;;14.98;13.38;;;27.70;58.70;;;;;;5044677;28;20333;-70
2023/09/14 12:14:38;;;;;;;12.98;11.57;;;27.70;58.80;;;;;;5057197;28;20104;-71
2023/09/14 12:17:25;;;;;;;14.93;13.32;;;27.80;58.80;;;;;;5056900;28;20036;-72
2023/09/14 12:19:57;;;;;;;13.85;12.35;;;27.90;58.30;;;;;;5056749;28;20339;-71
2023/09/14 12:22:29;;;;;;;14.02;12.63;;;27.90;58.10;;;;;;5057308;28;20150;-72
2023/09/14 12:24:56;;;;;;;13.57;11.60;;;27.90;58.10;;;;;;5057416;28;20100;-70
2023/09/14 12:27:23;;;;;;;15.07;12.65;;;28.00;57.80;;;;;;5040249;28;20029;-73
2023/09/14 12:29:50;;;;;;;12.98;11.60;;;28.10;57.70;;;;;;5061087;28;20021;-71
2023/09/14 12:32:17;;;;;;;15.13;13.55;;;28.10;57.60;;;;;;5076734;28;20074;-73
2023/09/14 12:34:45;;;;;;;14.32;12.05;;;28.00;57.70;;;;;;5076897;28;20096;-69
2023/09/14 12:37:14;;;;;;;17.45;13.27;;;27.90;57.90;;;;;;5076736;28;20021;-73
2023/09/14 12:39:44;;;;;;;15.75;12.65;;;27.90;57.50;;;;;;5076760;28;20407;-72